createdAt,value
2023-01-11T01:15:46.799Z,3.60
2023-01-11T01:18:13.858Z,2.40
2023-01-11T01:20:40.832Z,3.00
2023-01-11T01:23:07.976Z,3.70
2023-01-11T01:25:37.187Z,3.30
2023-01-11T01:28:04.436Z,3.40
2023-01-11T01:30:31.368Z,4.40
2023-01-11T01:32:58.336Z,3.90
2023-01-11T01:35:25.249Z,3.20
2023-01-11T01:37:52.195Z,3.20
2023-01-11T01:40:19.203Z,3.00
2023-01-11T01:42:46.177Z,3.00
2023-01-11T01:45:24.514Z,5.60
2023-01-11T01:47:58.407Z,9.50
2023-01-11T01:50:41.589Z,4.80
2023-01-11T01:53:13.056Z,4.00
2023-01-11T01:55:43.374Z,4.80
2023-01-11T01:58:11.997Z,5.10
2023-01-11T02:00:40.495Z,6.50
2023-01-11T02:03:07.486Z,7.30
2023-01-11T02:05:34.526Z,6.30
2023-01-11T02:08:01.510Z,5.20
2023-01-11T02:10:29.133Z,5.20
2023-01-11T02:12:59.075Z,5.40
2023-01-11T02:15:26.158Z,7.70
2023-01-11T02:17:53.181Z,6.10
2023-01-11T02:20:42.233Z,3.80
2023-01-11T02:23:36.665Z,4.40
2023-01-11T02:26:36.137Z,4.70
2023-01-11T02:29:38.678Z,5.10
2023-01-11T02:32:27.248Z,5.50
2023-01-11T02:35:07.830Z,5.00
2023-01-11T02:38:01.913Z,5.20
2023-01-11T02:40:51.130Z,6.10
2023-01-11T02:43:47.547Z,6.70
2023-01-11T02:46:23.366Z,7.80
2023-01-11T02:49:01.980Z,8.30
2023-01-11T02:51:35.115Z,7.60
2023-01-11T02:54:04.658Z,7.70
2023-01-11T02:56:33.812Z,7.20
2023-01-11T02:59:01.725Z,7.50
2023-01-11T03:01:28.757Z,10.90
2023-01-11T03:03:56.259Z,13.70
2023-01-11T03:06:27.621Z,10.50
2023-01-11T03:09:01.377Z,6.50
2023-01-11T03:12:09.361Z,6.50
2023-01-11T03:14:49.232Z,7.10
2023-01-11T03:17:22.892Z,8.30
2023-01-11T03:19:54.658Z,10.20
2023-01-11T03:22:59.293Z,6.60
2023-01-11T03:25:43.070Z,5.60
2023-01-11T03:28:36.179Z,7.30
2023-01-11T03:31:21.496Z,8.00
2023-01-11T03:34:02.852Z,8.40
2023-01-11T03:36:42.201Z,10.10
2023-01-11T03:39:19.754Z,7.30
2023-01-11T03:41:46.847Z,6.80
2023-01-11T03:44:14.635Z,7.90
2023-01-11T03:46:44.745Z,6.60
2023-01-11T03:49:14.441Z,7.00
2023-01-11T03:51:45.255Z,6.20
2023-01-11T03:54:14.394Z,6.20
2023-01-11T03:57:02.351Z,6.00
2023-01-11T03:59:29.427Z,6.20
2023-01-11T04:01:56.468Z,6.50
2023-01-11T04:04:23.794Z,6.00
2023-01-11T04:06:50.921Z,4.90
2023-01-11T04:09:17.823Z,5.70
2023-01-11T04:11:45.089Z,4.70
2023-01-11T04:14:12.025Z,5.60
2023-01-11T04:16:39.001Z,6.10
2023-01-11T04:19:05.963Z,5.30
2023-01-11T04:21:33.096Z,7.10
2023-01-11T04:23:59.951Z,5.40
2023-01-11T04:26:27.048Z,4.60
2023-01-11T04:28:54.514Z,5.20
2023-01-11T04:31:21.656Z,6.20
2023-01-11T04:33:48.605Z,6.00
2023-01-11T04:36:15.657Z,7.40
2023-01-11T04:38:42.629Z,7.00
2023-01-11T04:41:28.094Z,6.00
2023-01-11T04:43:56.390Z,7.40
2023-01-11T04:46:23.947Z,9.00
2023-01-11T04:48:51.244Z,14.20
2023-01-11T04:51:18.210Z,17.40
2023-01-11T04:53:47.293Z,14.50
2023-01-11T04:56:14.290Z,14.40
2023-01-11T04:58:41.313Z,12.80
2023-01-11T05:01:10.112Z,11.40
2023-01-11T05:03:37.171Z,8.40
2023-01-11T07:23:29.305Z,7.00
2023-01-11T07:25:56.350Z,7.40
2023-01-11T07:28:23.203Z,7.30
2023-01-11T07:30:58.563Z,8.70
2023-01-11T07:33:26.156Z,8.40
2023-01-11T07:35:53.181Z,8.10
2023-01-11T07:38:20.125Z,7.90
2023-01-11T07:40:47.063Z,7.10
2023-01-11T07:43:19.142Z,8.60
2023-01-11T07:45:49.593Z,8.70
2023-01-11T07:48:24.853Z,8.70
2023-01-11T07:50:52.685Z,8.30
2023-01-11T07:53:19.823Z,7.30
2023-01-11T07:55:47.515Z,7.70
2023-01-11T07:58:14.723Z,8.10
2023-01-11T08:00:41.859Z,8.40
2023-01-11T08:03:09.128Z,9.20
2023-01-11T08:05:36.371Z,9.70
2023-01-11T08:08:03.916Z,10.80
2023-01-11T08:10:30.805Z,11.90
2023-01-11T08:13:16.952Z,11.20
2023-01-11T08:15:44.007Z,10.90
2023-01-11T08:18:12.102Z,9.00
2023-01-11T08:20:39.967Z,8.20
2023-01-11T08:23:08.235Z,7.90
2023-01-11T08:25:35.189Z,8.70
2023-01-11T08:28:02.918Z,8.20
2023-01-11T08:30:29.982Z,9.80
2023-01-11T08:32:57.722Z,9.50
2023-01-11T08:35:25.689Z,8.30
2023-01-11T08:37:52.736Z,9.50
2023-01-11T08:40:21.061Z,8.70
2023-01-11T08:42:58.585Z,9.60
2023-01-11T08:45:25.737Z,7.30
2023-01-11T08:47:57.442Z,8.20
2023-01-11T08:50:26.761Z,9.30
2023-01-11T08:52:53.941Z,9.10
2023-01-11T08:55:20.795Z,8.60
2023-01-11T08:57:47.740Z,8.00
2023-01-11T09:00:15.638Z,7.40
2023-01-11T09:02:42.723Z,7.60
2023-01-11T09:05:12.278Z,8.90
2023-01-11T09:07:41.480Z,7.10
2023-01-11T09:10:09.011Z,8.40
2023-01-11T09:12:36.146Z,8.70
2023-01-11T09:15:06.205Z,9.90
2023-01-11T09:17:33.855Z,7.90
2023-01-11T09:20:00.790Z,8.10
2023-01-11T09:22:27.667Z,8.00
2023-01-11T09:24:55.624Z,7.30
2023-01-11T09:27:22.427Z,7.90
2023-01-11T09:29:49.369Z,7.90
2023-01-11T09:32:16.372Z,8.20
2023-01-11T09:34:46.686Z,8.10
2023-01-11T09:37:14.567Z,10.10
2023-01-11T09:39:42.316Z,9.50
2023-01-11T09:42:39.163Z,7.90
2023-01-11T09:45:18.871Z,9.00
2023-01-11T09:48:11.809Z,8.30
2023-01-11T09:50:45.845Z,9.80
2023-01-11T09:53:18.728Z,10.50
2023-01-11T09:55:47.245Z,11.00
2023-01-11T09:58:29.405Z,10.50
2023-01-11T10:01:22.101Z,10.30
2023-01-11T10:04:20.609Z,12.80
2023-01-11T10:06:58.845Z,10.00
2023-01-11T13:28:39.328Z,17.90
2023-01-11T13:31:08.091Z,19.10
2023-01-11T13:33:36.277Z,15.00
2023-01-11T13:36:22.808Z,13.90
2023-01-11T13:45:17.283Z,17.40
2023-01-11T13:47:47.240Z,12.50
2023-01-11T13:50:34.863Z,14.20
2023-01-11T13:53:06.274Z,14.90
2023-01-11T13:56:19.361Z,15.20
2023-01-11T13:59:24.944Z,13.20
2023-01-11T14:02:04.979Z,12.40
2023-01-11T14:04:50.357Z,13.60
2023-01-11T14:08:01.179Z,16.80
2023-01-11T14:10:46.373Z,16.90
2023-01-11T14:13:48.359Z,15.80
2023-01-11T14:16:19.500Z,13.80
2023-01-11T14:18:51.808Z,13.90
2023-01-11T14:21:23.839Z,14.90
2023-01-11T14:23:52.216Z,13.50
2023-01-11T14:26:57.333Z,15.90
2023-01-11T14:29:52.299Z,13.80
2023-01-11T14:32:35.376Z,14.80
2023-01-11T14:35:34.353Z,14.60
2023-01-11T14:38:32.594Z,14.20
2023-01-11T14:41:45.921Z,17.60
2023-01-11T14:44:37.954Z,74.50
2023-01-11T14:47:42.217Z,39.40
2023-01-11T14:50:20.172Z,15.70
2023-01-11T14:52:58.087Z,57.70
2023-01-11T14:55:30.345Z,64.30
2023-01-11T14:57:57.443Z,17.90
2023-01-11T15:00:24.389Z,17.60
2023-01-11T15:03:01.115Z,14.60
2023-01-11T15:05:31.663Z,15.30
2023-01-11T15:08:23.944Z,15.00
2023-01-11T15:11:07.865Z,21.80
2023-01-11T15:13:44.949Z,16.80
2023-01-11T15:16:33.812Z,14.30
2023-01-11T15:19:06.966Z,17.70
2023-01-11T15:24:01.953Z,13.70
2023-01-11T15:26:29.187Z,19.20
2023-01-11T15:28:59.878Z,15.60
2023-01-11T15:31:48.293Z,15.40
2023-01-11T15:34:27.704Z,14.50
2023-01-11T15:37:02.694Z,15.40
2023-01-11T15:40:14.113Z,19.20
2023-01-11T15:42:54.131Z,15.30
2023-01-11T15:45:27.697Z,17.00
2023-01-11T15:48:06.941Z,15.90
2023-01-11T15:50:58.504Z,15.60
2023-01-11T15:53:33.967Z,17.00
2023-01-11T15:56:21.093Z,15.50
2023-01-11T15:59:14.337Z,15.50
2023-01-11T16:02:05.645Z,15.80
2023-01-11T18:57:10.541Z,15.50
2023-01-11T18:59:37.791Z,14.40
2023-01-11T19:02:24.552Z,14.00
2023-01-11T19:04:52.341Z,15.70
2023-01-11T19:07:19.422Z,16.70
2023-01-11T19:09:46.506Z,17.70
2023-01-11T19:12:16.031Z,16.90
2023-01-11T19:14:43.310Z,21.60
2023-01-11T19:17:13.510Z,17.30
2023-01-11T19:19:40.799Z,18.80
2023-01-11T19:22:10.459Z,14.70
2023-01-11T19:24:37.690Z,14.20
2023-01-11T19:27:04.876Z,15.40
2023-01-11T19:29:31.988Z,14.70
2023-01-11T19:31:59.217Z,14.30
2023-01-11T19:34:26.315Z,14.90
2023-01-11T19:36:53.477Z,17.20
2023-01-11T19:39:20.511Z,15.50
2023-01-11T19:42:03.333Z,16.10
2023-01-11T19:44:32.076Z,15.90
2023-01-11T19:47:10.935Z,15.60
2023-01-11T19:49:40.134Z,15.80
2023-01-11T19:52:13.551Z,17.00
2023-01-11T19:54:44.207Z,15.10
2023-01-11T19:57:12.629Z,14.60
2023-01-11T19:59:39.866Z,16.00
2023-01-11T20:02:07.652Z,16.40
2023-01-11T20:04:35.097Z,19.10
2023-01-11T20:07:02.276Z,17.20
2023-01-11T20:09:29.806Z,17.80
2023-01-11T20:11:59.029Z,15.60
2023-01-11T20:20:19.736Z,17.70
2023-01-11T20:22:46.756Z,19.80
2023-01-11T20:25:13.984Z,17.60
2023-01-11T20:27:41.132Z,16.70
2023-01-11T20:30:09.682Z,15.90
2023-01-11T20:32:41.830Z,20.20
2023-01-11T20:42:47.366Z,16.80
2023-01-11T20:45:14.424Z,16.00
2023-01-11T20:47:41.699Z,15.80
2023-01-11T20:50:09.413Z,15.60
2023-01-11T20:52:38.975Z,16.10
2023-01-11T20:55:06.855Z,15.90
2023-01-11T20:57:34.025Z,17.50
2023-01-11T21:00:01.215Z,19.00
2023-01-11T21:02:28.607Z,17.60
2023-01-11T21:04:57.248Z,16.80
2023-01-11T21:07:24.399Z,15.30
2023-01-11T21:09:51.877Z,15.80
2023-01-11T21:12:19.940Z,16.60
2023-01-11T21:14:47.233Z,16.50
2023-01-11T21:17:14.613Z,17.30
2023-01-11T21:19:47.550Z,16.00
2023-01-11T21:22:14.564Z,15.80
2023-01-11T21:24:41.588Z,17.00
2023-01-11T21:27:08.739Z,17.80
2023-01-11T21:29:36.092Z,16.30
2023-01-11T21:32:03.148Z,16.60
2023-01-11T21:34:30.270Z,15.90
2023-01-11T21:36:57.393Z,16.60
2023-01-11T21:39:24.721Z,16.60
